Boga Indah — 9V2399 — position and weather

sailwx.info

Track history (hours):
 
Tides and Currents Weather Stations Pressure Air Temp Water Temp Dewpoint Dewpoint Depression Visibility Wind Speed Wind Dir Waves Ship Positions

Boga Indah

Last reported at 2018-Jan-23 19:58 UTC. Time now 2018-Jan-23 20:08 UTC.
Position N 49°20' W 123°15'.

Length 229 m; draft 7.8 m.

Type: Cargo ship. MMSI: 563770000.

Date/timePositionNaut miles runAvg speedWind from/ knotsBaromVisibWave heightAir tempDewpointWater temp
2018-Jan-23 19:58N 49°20' W 123°15'0 0.0
2018-Jan-23 19:28N 49°20' W 123°15'0 0.0
2018-Jan-23 18:58N 49°20' W 123°15'0 0.0
2018-Jan-23 18:28N 49°20' W 123°15'0 0.0
2018-Jan-23 17:58N 49°20' W 123°15'0 0.1
2018-Jan-23 17:28N 49°20' W 123°15'0 0.1
2018-Jan-23 16:58N 49°20' W 123°15'0 0.0
2018-Jan-23 16:28N 49°20' W 123°15'0 0.0
2018-Jan-23 15:55N 49°20' W 123°15'0 0.0
2018-Jan-23 15:28N 49°20' W 123°15'0 0.1
2018-Jan-23 14:58N 49°20' W 123°15'0 0.0
2018-Jan-23 14:28N 49°20' W 123°15'0 0.0
2018-Jan-23 13:58N 49°20' W 123°15'0 0.1
2018-Jan-23 13:28N 49°20' W 123°15'0 0.0
2018-Jan-23 12:58N 49°20' W 123°15'0 0.1
2018-Jan-23 12:28N 49°20' W 123°15'0 0.1
2018-Jan-23 11:58N 49°20' W 123°15'0 0.1
2018-Jan-23 11:28N 49°20' W 123°15'0 0.0
2018-Jan-23 10:58N 49°20' W 123°15'0 0.0
2018-Jan-23 10:28N 49°20' W 123°15'0 0.0
2018-Jan-23 09:58N 49°20' W 123°15'0 0.0
2018-Jan-23 09:28N 49°20' W 123°15'0 0.1
2018-Jan-23 08:58N 49°20' W 123°15'0 0.1
2018-Jan-23 08:28N 49°20' W 123°15'0 0.1
2018-Jan-23 07:58N 49°20' W 123°15'0 0.1
2018-Jan-23 07:28N 49°20' W 123°15'0 0.1
2018-Jan-23 06:58N 49°20' W 123°15'0 0.0
2018-Jan-23 06:28N 49°20' W 123°15'0 0.0
2018-Jan-23 05:58N 49°20' W 123°15'0 0.0
2018-Jan-23 05:28N 49°20' W 123°15'0 0.0
2018-Jan-23 04:55N 49°20' W 123°15'0 0.0
2018-Jan-23 04:28N 49°20' W 123°15'0 0.0
2018-Jan-23 03:58N 49°20' W 123°15'0 0.0
2018-Jan-23 03:28N 49°20' W 123°15'0 0.0
2018-Jan-23 02:58N 49°20' W 123°15'0 0.0
2018-Jan-23 02:28N 49°20' W 123°15'0 0.0
2018-Jan-23 01:58N 49°20' W 123°15'0 0.0
2018-Jan-23 01:28N 49°20' W 123°15'0 0.1
2018-Jan-23 00:58N 49°20' W 123°15'0 0.0
2018-Jan-23 00:28N 49°20' W 123°15'0 0.1
2018-Jan-22 23:58N 49°20' W 123°15'0 0.1
2018-Jan-22 23:28N 49°20' W 123°15'0 0.0
2018-Jan-22 22:55N 49°20' W 123°15'0 0.0
2018-Jan-22 22:28N 49°20' W 123°15'0 0.1
2018-Jan-22 21:58N 49°20' W 123°15'0 0.1
2018-Jan-22 21:28N 49°20' W 123°15'0 0.0
2018-Jan-22 20:58N 49°20' W 123°15'0 0.2
2018-Jan-22 20:30N 49°20' W 123°15'3 5.7
2018-Jan-22 20:00N 49°18' W 123°18'612.3
2018-Jan-22 19:30N 49°12' W 123°20'713.8
2018-Jan-22 19:00N 49°05' W 123°21'714.0
2018-Jan-22 18:30N 48°59' W 123°14'713.8
2018-Jan-22 18:01N 48°55' W 123°06'713.9
2018-Jan-22 17:30N 48°49' W 123°00'713.7
2018-Jan-22 17:00N 48°44' W 123°08'612.6
2018-Jan-22 16:30N 48°39' W 123°14'816.3
2018-Jan-22 16:00N 48°32' W 123°11'714.3
2018-Jan-22 15:30N 48°24' W 123°12'714.7
2018-Jan-22 15:01N 48°22' W 123°22'5 8.9
2018-Jan-22 14:30N 48°18' W 123°25'4 8.8
2018-Jan-22 14:00N 48°14' W 123°27'4 7.9
2018-Jan-22 13:26N 48°13' W 123°34'3 7.4
2018-Jan-22 13:00N 48°13' W 123°39'4 7.6
2018-Jan-22 12:28N 48°13' W 123°45'4 8.4
2018-Jan-22 11:59N 48°13' W 123°51'510.1
2018-Jan-22 11:30N 48°14' W 123°58'814.9
2018-Jan-22 10:59N 48°17' W 124°09'714.8
2018-Jan-22 10:30N 48°21' W 124°18'713.9
2018-Jan-22 10:00N 48°24' W 124°28'613.0
2018-Jan-22 09:30N 48°26' W 124°37'612.2
2018-Jan-22 09:00N 48°28' W 124°46'612.0
2018-Jan-22 08:30N 48°28' W 124°55'611.1
2018-Jan-22 08:00N 48°28' W 125°03'511.1
2018-Jan-22 07:31N 48°29' W 125°11'611.4
2018-Jan-22 07:00N 48°30' W 125°20'4 8.2
2018-Jan-22 06:30N 48°31' W 125°26'4 7.0
2018-Jan-22 06:00N 48°31' W 125°31'5 9.8
2018-Jan-22 05:30N 48°33' W 125°38'510.0
2018-Jan-22 05:00N 48°35' W 125°45'510.1
2018-Jan-22 04:30N 48°36' W 125°52'510.2
2018-Jan-22 04:00N 48°37' W 125°60'510.3
2018-Jan-22 03:30N 48°37' W 126°08'5 9.8
2018-Jan-22 03:00N 48°38' W 126°15'5 9.5
2018-Jan-22 02:29N 48°38' W 126°22'5 9.2
2018-Jan-22 02:00N 48°39' W 126°29'5 9.2
2018-Jan-22 01:28N 48°39' W 126°37'  
2018-Jan-19 21:00N 50°00' W 142°18'29412.2 230 / 291004.0 2.2 2.0 4.0
2018-Jan-18 21:00N 50°42' W 149°54'27712.1 300 / 301012.0 5.4 2.0 4.0
2018-Jan-17 22:00N 50°48' W 157°12'28312.9 300 / 241006.0 5.4 -0.0 4.0
2018-Jan-17 00:00N 50°24' W 164°36'   320 / 241001.0 5.4 -0.0 3.0
Track history (hours):
 
Tides and Currents Weather Stations Pressure Air Temp Water Temp Dewpoint Dewpoint Depression Visibility Wind Speed Wind Dir Waves Ship Positions

Boga Indah

Last reported at 2018-Jan-23 19:58 UTC. Time now 2018-Jan-23 20:08 UTC.
Position N 49°20' W 123°15'.

Length 229 m; draft 7.8 m.

Type: Cargo ship. MMSI: 563770000.

Date/timePositionNaut miles runAvg speedWind from/ knotsBaromVisibWave heightAir tempDewpointWater temp
2018-Jan-23 19:58N 49°20' W 123°15'0 0.0
2018-Jan-23 19:28N 49°20' W 123°15'0 0.0
2018-Jan-23 18:58N 49°20' W 123°15'0 0.0
2018-Jan-23 18:28N 49°20' W 123°15'0 0.0
2018-Jan-23 17:58N 49°20' W 123°15'0 0.1
2018-Jan-23 17:28N 49°20' W 123°15'0 0.1
2018-Jan-23 16:58N 49°20' W 123°15'0 0.0
2018-Jan-23 16:28N 49°20' W 123°15'0 0.0
2018-Jan-23 15:55N 49°20' W 123°15'0 0.0
2018-Jan-23 15:28N 49°20' W 123°15'0 0.1
2018-Jan-23 14:58N 49°20' W 123°15'0 0.0
2018-Jan-23 14:28N 49°20' W 123°15'0 0.0
2018-Jan-23 13:58N 49°20' W 123°15'0 0.1
2018-Jan-23 13:28N 49°20' W 123°15'0 0.0
2018-Jan-23 12:58N 49°20' W 123°15'0 0.1
2018-Jan-23 12:28N 49°20' W 123°15'0 0.1
2018-Jan-23 11:58N 49°20' W 123°15'0 0.1
2018-Jan-23 11:28N 49°20' W 123°15'0 0.0
2018-Jan-23 10:58N 49°20' W 123°15'0 0.0
2018-Jan-23 10:28N 49°20' W 123°15'0 0.0
2018-Jan-23 09:58N 49°20' W 123°15'0 0.0
2018-Jan-23 09:28N 49°20' W 123°15'0 0.1
2018-Jan-23 08:58N 49°20' W 123°15'0 0.1
2018-Jan-23 08:28N 49°20' W 123°15'0 0.1
2018-Jan-23 07:58N 49°20' W 123°15'0 0.1
2018-Jan-23 07:28N 49°20' W 123°15'0 0.1
2018-Jan-23 06:58N 49°20' W 123°15'0 0.0
2018-Jan-23 06:28N 49°20' W 123°15'0 0.0
2018-Jan-23 05:58N 49°20' W 123°15'0 0.0
2018-Jan-23 05:28N 49°20' W 123°15'0 0.0
2018-Jan-23 04:55N 49°20' W 123°15'0 0.0
2018-Jan-23 04:28N 49°20' W 123°15'0 0.0
2018-Jan-23 03:58N 49°20' W 123°15'0 0.0
2018-Jan-23 03:28N 49°20' W 123°15'0 0.0
2018-Jan-23 02:58N 49°20' W 123°15'0 0.0
2018-Jan-23 02:28N 49°20' W 123°15'0 0.0
2018-Jan-23 01:58N 49°20' W 123°15'0 0.0
2018-Jan-23 01:28N 49°20' W 123°15'0 0.1
2018-Jan-23 00:58N 49°20' W 123°15'0 0.0
2018-Jan-23 00:28N 49°20' W 123°15'0 0.1
2018-Jan-22 23:58N 49°20' W 123°15'0 0.1
2018-Jan-22 23:28N 49°20' W 123°15'0 0.0
2018-Jan-22 22:55N 49°20' W 123°15'0 0.0
2018-Jan-22 22:28N 49°20' W 123°15'0 0.1
2018-Jan-22 21:58N 49°20' W 123°15'0 0.1
2018-Jan-22 21:28N 49°20' W 123°15'0 0.0
2018-Jan-22 20:58N 49°20' W 123°15'0 0.2
2018-Jan-22 20:30N 49°20' W 123°15'3 5.7
2018-Jan-22 20:00N 49°18' W 123°18'612.3
2018-Jan-22 19:30N 49°12' W 123°20'713.8
2018-Jan-22 19:00N 49°05' W 123°21'714.0
2018-Jan-22 18:30N 48°59' W 123°14'713.8
2018-Jan-22 18:01N 48°55' W 123°06'713.9
2018-Jan-22 17:30N 48°49' W 123°00'713.7
2018-Jan-22 17:00N 48°44' W 123°08'612.6
2018-Jan-22 16:30N 48°39' W 123°14'816.3
2018-Jan-22 16:00N 48°32' W 123°11'714.3
2018-Jan-22 15:30N 48°24' W 123°12'714.7
2018-Jan-22 15:01N 48°22' W 123°22'5 8.9
2018-Jan-22 14:30N 48°18' W 123°25'4 8.8
2018-Jan-22 14:00N 48°14' W 123°27'4 7.9
2018-Jan-22 13:26N 48°13' W 123°34'3 7.4
2018-Jan-22 13:00N 48°13' W 123°39'4 7.6
2018-Jan-22 12:28N 48°13' W 123°45'4 8.4
2018-Jan-22 11:59N 48°13' W 123°51'510.1
2018-Jan-22 11:30N 48°14' W 123°58'814.9
2018-Jan-22 10:59N 48°17' W 124°09'714.8
2018-Jan-22 10:30N 48°21' W 124°18'713.9
2018-Jan-22 10:00N 48°24' W 124°28'613.0
2018-Jan-22 09:30N 48°26' W 124°37'612.2
2018-Jan-22 09:00N 48°28' W 124°46'612.0
2018-Jan-22 08:30N 48°28' W 124°55'611.1
2018-Jan-22 08:00N 48°28' W 125°03'511.1
2018-Jan-22 07:31N 48°29' W 125°11'611.4
2018-Jan-22 07:00N 48°30' W 125°20'4 8.2
2018-Jan-22 06:30N 48°31' W 125°26'4 7.0
2018-Jan-22 06:00N 48°31' W 125°31'5 9.8
2018-Jan-22 05:30N 48°33' W 125°38'510.0
2018-Jan-22 05:00N 48°35' W 125°45'510.1
2018-Jan-22 04:30N 48°36' W 125°52'510.2
2018-Jan-22 04:00N 48°37' W 125°60'510.3
2018-Jan-22 03:30N 48°37' W 126°08'5 9.8
2018-Jan-22 03:00N 48°38' W 126°15'5 9.5
2018-Jan-22 02:29N 48°38' W 126°22'5 9.2
2018-Jan-22 02:00N 48°39' W 126°29'5 9.2
2018-Jan-22 01:28N 48°39' W 126°37'  
2018-Jan-19 21:00N 50°00' W 142°18'29412.2 230 / 291004.0 2.2 2.0 4.0
2018-Jan-18 21:00N 50°42' W 149°54'27712.1 300 / 301012.0 5.4 2.0 4.0
2018-Jan-17 22:00N 50°48' W 157°12'28312.9 300 / 241006.0 5.4 -0.0 4.0
2018-Jan-17 00:00N 50°24' W 164°36'   320 / 241001.0 5.4 -0.0 3.0

Dump ship's entire track history